sensor_id;sensor_type;location;lat;lon;timestamp;pressure;altitude;pressure_sealevel;temperature;humidity
13581;BME280;6861;46.170;7.222;2023-07-20T00:00:00;95839.72;;;26.11;37.41
13581;BME280;6861;46.170;7.222;2023-07-20T00:02:50;95843.53;;;26.10;37.44
13581;BME280;6861;46.170;7.222;2023-07-20T00:05:18;95838.19;;;26.10;37.01
13581;BME280;6861;46.170;7.222;2023-07-20T00:07:48;95842.41;;;26.11;37.12
13581;BME280;6861;46.170;7.222;2023-07-20T00:10:18;95845.13;;;26.15;37.26
13581;BME280;6861;46.170;7.222;2023-07-20T00:12:47;95845.81;;;26.08;37.56
13581;BME280;6861;46.170;7.222;2023-07-20T00:15:17;95848.38;;;25.94;37.64
13581;BME280;6861;46.170;7.222;2023-07-20T00:17:45;95838.31;;;25.84;37.84
13581;BME280;6861;46.170;7.222;2023-07-20T00:20:13;95840.91;;;25.77;37.56
13581;BME280;6861;46.170;7.222;2023-07-20T00:22:41;95848.44;;;25.68;38.15
13581;BME280;6861;46.170;7.222;2023-07-20T00:25:09;95849.47;;;25.60;38.21
13581;BME280;6861;46.170;7.222;2023-07-20T00:27:38;95843.66;;;25.54;38.15
13581;BME280;6861;46.170;7.222;2023-07-20T00:30:07;95840.84;;;25.43;38.01
13581;BME280;6861;46.170;7.222;2023-07-20T00:32:37;95858.09;;;25.46;38.17
13581;BME280;6861;46.170;7.222;2023-07-20T00:35:06;95848.81;;;25.40;38.22
13581;BME280;6861;46.170;7.222;2023-07-20T00:37:34;95856.09;;;25.39;38.27
13581;BME280;6861;46.170;7.222;2023-07-20T00:40:02;95851.91;;;25.42;38.15
13581;BME280;6861;46.170;7.222;2023-07-20T00:42:31;95844.97;;;25.37;38.39
13581;BME280;6861;46.170;7.222;2023-07-20T00:44:59;95856.50;;;25.41;38.62
13581;BME280;6861;46.170;7.222;2023-07-20T00:47:28;95855.78;;;25.44;38.39
13581;BME280;6861;46.170;7.222;2023-07-20T00:49:57;95856.59;;;25.48;38.35
13581;BME280;6861;46.170;7.222;2023-07-20T00:52:27;95856.50;;;25.41;38.43
13581;BME280;6861;46.170;7.222;2023-07-20T00:54:56;95853.69;;;25.31;38.46
13581;BME280;6861;46.170;7.222;2023-07-20T00:57:24;95850.94;;;25.27;38.56
13581;BME280;6861;46.170;7.222;2023-07-20T00:59:53;95855.47;;;25.23;38.85
13581;BME280;6861;46.170;7.222;2023-07-20T01:02:21;95853.94;;;25.22;38.88
13581;BME280;6861;46.170;7.222;2023-07-20T01:04:50;95856.19;;;25.20;38.64
13581;BME280;6861;46.170;7.222;2023-07-20T01:07:24;95863.41;;;25.16;39.00
13581;BME280;6861;46.170;7.222;2023-07-20T01:10:00;95863.41;;;25.16;38.66
13581;BME280;6861;46.170;7.222;2023-07-20T01:12:35;95848.47;;;25.15;38.71
13581;BME280;6861;46.170;7.222;2023-07-20T01:15:04;95861.66;;;25.27;38.81
13581;BME280;6861;46.170;7.222;2023-07-20T01:17:34;95864.03;;;25.32;39.01
13581;BME280;6861;46.170;7.222;2023-07-20T01:20:03;95851.03;;;25.34;39.11
13581;BME280;6861;46.170;7.222;2023-07-20T01:22:52;95854.13;;;25.36;38.95
13581;BME280;6861;46.170;7.222;2023-07-20T01:25:34;95850.28;;;25.34;38.77
13581;BME280;6861;46.170;7.222;2023-07-20T01:31:18;95861.75;;;25.34;38.87
13581;BME280;6861;46.170;7.222;2023-07-20T01:33:48;95867.13;;;25.34;38.98
13581;BME280;6861;46.170;7.222;2023-07-20T01:36:19;95862.13;;;25.33;39.19
13581;BME280;6861;46.170;7.222;2023-07-20T01:38:50;95861.00;;;25.34;39.09
13581;BME280;6861;46.170;7.222;2023-07-20T01:41:19;95857.13;;;25.31;39.22
13581;BME280;6861;46.170;7.222;2023-07-20T01:43:48;95855.59;;;25.30;38.89
13581;BME280;6861;46.170;7.222;2023-07-20T01:46:18;95859.41;;;25.29;39.17
13581;BME280;6861;46.170;7.222;2023-07-20T01:48:46;95861.25;;;25.25;39.35
13581;BME280;6861;46.170;7.222;2023-07-20T01:51:14;95852.81;;;25.23;39.28
13581;BME280;6861;46.170;7.222;2023-07-20T01:53:44;95854.72;;;25.23;39.39
13581;BME280;6861;46.170;7.222;2023-07-20T01:56:12;95856.63;;;25.22;39.15
13581;BME280;6861;46.170;7.222;2023-07-20T01:58:40;95859.16;;;25.11;39.65
13581;BME280;6861;46.170;7.222;2023-07-20T02:01:08;95848.66;;;24.99;39.68
13581;BME280;6861;46.170;7.222;2023-07-20T02:03:38;95860.09;;;24.96;39.77
13581;BME280;6861;46.170;7.222;2023-07-20T02:06:06;95847.47;;;24.97;39.98
13581;BME280;6861;46.170;7.222;2023-07-20T02:08:34;95854.38;;;24.98;40.02
13581;BME280;6861;46.170;7.222;2023-07-20T02:11:02;95854.38;;;24.98;39.99
13581;BME280;6861;46.170;7.222;2023-07-20T02:13:31;95861.97;;;24.96;40.06
13581;BME280;6861;46.170;7.222;2023-07-20T02:15:59;95854.28;;;24.94;39.92
13581;BME280;6861;46.170;7.222;2023-07-20T02:18:27;95848.16;;;24.94;40.13
13581;BME280;6861;46.170;7.222;2023-07-20T02:20:57;95853.50;;;24.94;40.08
13581;BME280;6861;46.170;7.222;2023-07-20T02:23:25;95858.47;;;24.92;40.04
13581;BME280;6861;46.170;7.222;2023-07-20T02:25:53;95858.88;;;24.94;40.00
13581;BME280;6861;46.170;7.222;2023-07-20T02:28:22;95857.31;;;24.93;40.11
13581;BME280;6861;46.170;7.222;2023-07-20T02:30:50;95859.59;;;24.91;40.26
13581;BME280;6861;46.170;7.222;2023-07-20T02:33:18;95853.75;;;24.85;40.00
13581;BME280;6861;46.170;7.222;2023-07-20T02:35:46;95862.56;;;24.86;40.36
13581;BME280;6861;46.170;7.222;2023-07-20T02:38:16;95863.59;;;24.77;40.47
13581;BME280;6861;46.170;7.222;2023-07-20T02:40:44;95866.16;;;24.70;40.45
13581;BME280;6861;46.170;7.222;2023-07-20T02:43:12;95870.66;;;24.66;40.64
13581;BME280;6861;46.170;7.222;2023-07-20T02:45:40;95872.56;;;24.66;40.77
13581;BME280;6861;46.170;7.222;2023-07-20T02:48:09;95875.19;;;24.62;40.91
13581;BME280;6861;46.170;7.222;2023-07-20T02:50:37;95875.84;;;24.56;40.93
13581;BME280;6861;46.170;7.222;2023-07-20T02:53:05;95877.03;;;24.58;40.90
13581;BME280;6861;46.170;7.222;2023-07-20T02:55:35;95888.84;;;24.57;40.79
13581;BME280;6861;46.170;7.222;2023-07-20T02:58:03;95880.41;;;24.55;40.50
13581;BME280;6861;46.170;7.222;2023-07-20T03:00:32;95890.34;;;24.55;40.78
13581;BME280;6861;46.170;7.222;2023-07-20T03:03:01;95891.81;;;24.52;40.70
13581;BME280;6861;46.170;7.222;2023-07-20T03:05:29;95885.28;;;24.49;41.02
13581;BME280;6861;46.170;7.222;2023-07-20T03:07:57;95890.56;;;24.46;40.96
13581;BME280;6861;46.170;7.222;2023-07-20T03:10:29;95897.06;;;24.45;41.03
13581;BME280;6861;46.170;7.222;2023-07-20T03:12:59;95895.50;;;24.44;41.11
13581;BME280;6861;46.170;7.222;2023-07-20T03:15:27;95898.53;;;24.42;41.37
13581;BME280;6861;46.170;7.222;2023-07-20T03:17:56;95901.56;;;24.41;41.25
13581;BME280;6861;46.170;7.222;2023-07-20T03:20:25;95907.63;;;24.38;41.04
13581;BME280;6861;46.170;7.222;2023-07-20T03:22:53;95893.41;;;24.34;41.46
13581;BME280;6861;46.170;7.222;2023-07-20T03:25:22;95903.81;;;24.39;41.29
13581;BME280;6861;46.170;7.222;2023-07-20T03:27:53;95903.41;;;24.37;41.21
13581;BME280;6861;46.170;7.222;2023-07-20T03:30:23;95914.38;;;24.32;40.52
13581;BME280;6861;46.170;7.222;2023-07-20T03:32:52;95905.53;;;24.28;40.30
13581;BME280;6861;46.170;7.222;2023-07-20T03:35:20;95902.00;;;24.24;40.14
13581;BME280;6861;46.170;7.222;2023-07-20T03:37:49;95901.94;;;24.20;40.39
13581;BME280;6861;46.170;7.222;2023-07-20T03:40:17;95912.28;;;24.22;40.17
13581;BME280;6861;46.170;7.222;2023-07-20T03:42:45;95906.50;;;24.19;39.49
13581;BME280;6861;46.170;7.222;2023-07-20T03:45:13;95906.78;;;24.14;39.57
13581;BME280;6861;46.170;7.222;2023-07-20T03:47:43;95910.16;;;24.11;39.35
13581;BME280;6861;46.170;7.222;2023-07-20T03:50:11;95914.31;;;24.09;39.06
13581;BME280;6861;46.170;7.222;2023-07-20T03:52:39;95917.63;;;24.02;39.71
13581;BME280;6861;46.170;7.222;2023-07-20T03:55:08;95914.13;;;23.98;40.17
13581;BME280;6861;46.170;7.222;2023-07-20T03:57:37;95912.22;;;23.99;40.73
13581;BME280;6861;46.170;7.222;2023-07-20T04:00:06;95919.09;;;24.00;40.54
13581;BME280;6861;46.170;7.222;2023-07-20T04:02:34;95909.19;;;24.00;40.84
13581;BME280;6861;46.170;7.222;2023-07-20T04:05:04;95915.25;;;23.97;40.86
13581;BME280;6861;46.170;7.222;2023-07-20T04:07:33;95918.97;;;23.93;41.12
13581;BME280;6861;46.170;7.222;2023-07-20T04:10:02;95926.91;;;23.89;41.18
13581;BME280;6861;46.170;7.222;2023-07-20T04:12:30;95913.41;;;23.82;41.03
13581;BME280;6861;46.170;7.222;2023-07-20T04:14:58;95925.50;;;23.76;41.52
13581;BME280;6861;46.170;7.222;2023-07-20T04:17:27;95917.75;;;23.71;41.61
13581;BME280;6861;46.170;7.222;2023-07-20T04:19:56;95919.56;;;23.67;41.93
13581;BME280;6861;46.170;7.222;2023-07-20T04:22:25;95921.47;;;23.66;41.85
13581;BME280;6861;46.170;7.222;2023-07-20T04:24:54;95924.50;;;23.65;41.85
13581;BME280;6861;46.170;7.222;2023-07-20T04:27:22;95917.16;;;23.62;42.18
13581;BME280;6861;46.170;7.222;2023-07-20T04:29:50;95917.44;;;23.57;42.11
13581;BME280;6861;46.170;7.222;2023-07-20T04:32:19;95923.38;;;23.50;42.32
13581;BME280;6861;46.170;7.222;2023-07-20T04:34:47;95924.41;;;23.45;42.87
13581;BME280;6861;46.170;7.222;2023-07-20T04:37:15;95926.59;;;23.40;43.03
13581;BME280;6861;46.170;7.222;2023-07-20T04:39:45;95928.56;;;23.43;43.28
13581;BME280;6861;46.170;7.222;2023-07-20T04:42:13;95933.91;;;23.43;43.28
13581;BME280;6861;46.170;7.222;2023-07-20T04:44:42;95932.00;;;23.43;43.13
13581;BME280;6861;46.170;7.222;2023-07-20T04:47:10;95932.84;;;23.47;43.51
13581;BME280;6861;46.170;7.222;2023-07-20T04:49:38;95929.84;;;23.49;43.51
13581;BME280;6861;46.170;7.222;2023-07-20T04:52:07;95935.44;;;23.44;43.79
13581;BME280;6861;46.170;7.222;2023-07-20T04:54:35;95928.50;;;23.39;44.10
13581;BME280;6861;46.170;7.222;2023-07-20T04:57:11;95926.09;;;23.34;44.39
13581;BME280;6861;46.170;7.222;2023-07-20T04:59:40;95928.34;;;23.32;44.26
13581;BME280;6861;46.170;7.222;2023-07-20T05:02:08;95925.59;;;23.29;43.80
13581;BME280;6861;46.170;7.222;2023-07-20T05:04:37;95925.94;;;23.27;43.46
13581;BME280;6861;46.170;7.222;2023-07-20T05:07:05;95915.94;;;23.24;43.73
13581;BME280;6861;46.170;7.222;2023-07-20T05:09:33;95918.97;;;23.23;43.18
13581;BME280;6861;46.170;7.222;2023-07-20T05:12:02;95918.19;;;23.22;43.69
13581;BME280;6861;46.170;7.222;2023-07-20T05:14:32;95928.88;;;23.22;43.56
13581;BME280;6861;46.170;7.222;2023-07-20T05:17:00;95923.53;;;23.22;43.57
13581;BME280;6861;46.170;7.222;2023-07-20T05:19:28;95928.88;;;23.22;43.77
13581;BME280;6861;46.170;7.222;2023-07-20T05:21:56;95932.59;;;23.17;43.37
13581;BME280;6861;46.170;7.222;2023-07-20T05:24:24;95933.28;;;23.14;43.64
13581;BME280;6861;46.170;7.222;2023-07-20T05:26:53;95934.47;;;23.17;43.37
13581;BME280;6861;46.170;7.222;2023-07-20T05:31:50;95940.50;;;23.30;43.33
13581;BME280;6861;46.170;7.222;2023-07-20T05:34:19;95943.03;;;23.42;43.55
13581;BME280;6861;46.170;7.222;2023-07-20T05:36:47;95935.78;;;23.58;43.04
13581;BME280;6861;46.170;7.222;2023-07-20T05:39:17;95933.94;;;23.78;43.23
13581;BME280;6861;46.170;7.222;2023-07-20T05:41:45;95937.91;;;24.03;42.60
13581;BME280;6861;46.170;7.222;2023-07-20T05:44:13;95936.56;;;24.32;42.31
13581;BME280;6861;46.170;7.222;2023-07-20T05:46:41;95939.75;;;24.61;41.88
13581;BME280;6861;46.170;7.222;2023-07-20T05:49:24;95937.94;;;24.88;41.50
13581;BME280;6861;46.170;7.222;2023-07-20T05:51:52;95938.72;;;25.11;41.10
13581;BME280;6861;46.170;7.222;2023-07-20T05:54:20;95929.88;;;25.33;40.89
13581;BME280;6861;46.170;7.222;2023-07-20T05:56:48;95931.72;;;25.56;40.40
13581;BME280;6861;46.170;7.222;2023-07-20T05:59:17;95928.19;;;25.74;39.66
13581;BME280;6861;46.170;7.222;2023-07-20T06:01:46;95930.69;;;25.90;38.83
13581;BME280;6861;46.170;7.222;2023-07-20T06:04:15;95931.25;;;26.06;38.99
13581;BME280;6861;46.170;7.222;2023-07-20T06:06:45;95924.91;;;26.22;38.13
13581;BME280;6861;46.170;7.222;2023-07-20T06:09:13;95926.63;;;26.37;38.24
13581;BME280;6861;46.170;7.222;2023-07-20T06:11:41;95917.59;;;26.52;38.35
13581;BME280;6861;46.170;7.222;2023-07-20T06:14:09;95917.00;;;26.69;37.55
13581;BME280;6861;46.170;7.222;2023-07-20T06:16:38;95920.94;;;26.83;36.88
13581;BME280;6861;46.170;7.222;2023-07-20T06:19:06;95928.00;;;26.98;36.46
13581;BME280;6861;46.170;7.222;2023-07-20T06:21:34;95918.47;;;27.07;36.79
13581;BME280;6861;46.170;7.222;2023-07-20T06:24:04;95923.59;;;27.23;35.83
13581;BME280;6861;46.170;7.222;2023-07-20T06:26:32;95916.03;;;27.39;35.92
13581;BME280;6861;46.170;7.222;2023-07-20T06:29:05;95913.81;;;27.56;36.31
13581;BME280;6861;46.170;7.222;2023-07-20T06:31:34;95919.72;;;27.72;35.69
13581;BME280;6861;46.170;7.222;2023-07-20T06:34:03;95925.13;;;27.83;35.59
13581;BME280;6861;46.170;7.222;2023-07-20T06:36:31;95923.25;;;27.97;35.73
13581;BME280;6861;46.170;7.222;2023-07-20T06:38:59;95920.25;;;28.10;34.71
13581;BME280;6861;46.170;7.222;2023-07-20T06:41:33;95919.50;;;28.20;35.08
13581;BME280;6861;46.170;7.222;2023-07-20T06:44:04;95920.34;;;28.31;34.70
13581;BME280;6861;46.170;7.222;2023-07-20T06:46:34;95922.31;;;28.48;35.24
13581;BME280;6861;46.170;7.222;2023-07-20T06:49:05;95919.63;;;28.62;34.57
13581;BME280;6861;46.170;7.222;2023-07-20T06:51:37;95919.25;;;28.71;34.70
13581;BME280;6861;46.170;7.222;2023-07-20T06:54:05;95910.41;;;28.78;34.60
13581;BME280;6861;46.170;7.222;2023-07-20T06:56:34;95919.69;;;28.87;33.91
13581;BME280;6861;46.170;7.222;2023-07-20T06:59:03;95912.00;;;28.96;33.85
13581;BME280;6861;46.170;7.222;2023-07-20T07:01:32;95907.38;;;29.04;33.66
13581;BME280;6861;46.170;7.222;2023-07-20T07:04:01;95899.66;;;29.13;34.04
13581;BME280;6861;46.170;7.222;2023-07-20T07:06:29;95899.66;;;29.24;33.95
13581;BME280;6861;46.170;7.222;2023-07-20T07:08:57;95891.94;;;29.36;34.18
13581;BME280;6861;46.170;7.222;2023-07-20T07:11:25;95893.06;;;29.50;33.92
13581;BME280;6861;46.170;7.222;2023-07-20T07:13:56;95883.81;;;29.58;33.39
13581;BME280;6861;46.170;7.222;2023-07-20T07:16:24;95876.84;;;29.64;33.60
13581;BME280;6861;46.170;7.222;2023-07-20T07:18:52;95876.84;;;29.71;32.94
13581;BME280;6861;46.170;7.222;2023-07-20T07:21:26;95879.13;;;29.80;32.93
13581;BME280;6861;46.170;7.222;2023-07-20T07:23:54;95882.16;;;29.92;32.84
13581;BME280;6861;46.170;7.222;2023-07-20T07:26:24;95884.81;;;29.99;32.68
13581;BME280;6861;46.170;7.222;2023-07-20T07:28:52;95886.38;;;30.04;32.43
13581;BME280;6861;46.170;7.222;2023-07-20T07:31:22;95884.03;;;30.10;32.50
13581;BME280;6861;46.170;7.222;2023-07-20T07:33:51;95883.22;;;30.20;32.71
13581;BME280;6861;46.170;7.222;2023-07-20T07:36:19;95873.09;;;30.34;32.30
13581;BME280;6861;46.170;7.222;2023-07-20T07:38:47;95879.56;;;30.48;31.97
13581;BME280;6861;46.170;7.222;2023-07-20T07:41:36;95876.84;;;30.51;31.75
13581;BME280;6861;46.170;7.222;2023-07-20T07:44:04;95878.00;;;30.50;31.78
13581;BME280;6861;46.170;7.222;2023-07-20T07:46:34;95871.03;;;30.53;31.62
13581;BME280;6861;46.170;7.222;2023-07-20T07:49:02;95873.72;;;30.56;31.65
13581;BME280;6861;46.170;7.222;2023-07-20T07:51:30;95866.03;;;30.51;31.76
13581;BME280;6861;46.170;7.222;2023-07-20T07:53:59;95867.94;;;30.58;31.65
13581;BME280;6861;46.170;7.222;2023-07-20T07:56:27;95857.53;;;30.60;31.66
13581;BME280;6861;46.170;7.222;2023-07-20T07:58:55;95865.22;;;30.61;31.45
13581;BME280;6861;46.170;7.222;2023-07-20T08:01:23;95865.59;;;30.63;31.61
13581;BME280;6861;46.170;7.222;2023-07-20T08:03:53;95857.44;;;30.71;32.13
13581;BME280;6861;46.170;7.222;2023-07-20T08:06:21;95867.81;;;30.76;32.05
13581;BME280;6861;46.170;7.222;2023-07-20T08:08:51;95853.16;;;30.77;31.63
13581;BME280;6861;46.170;7.222;2023-07-20T08:11:19;95860.09;;;30.78;32.21
13581;BME280;6861;46.170;7.222;2023-07-20T08:13:47;95849.97;;;30.89;31.94
13581;BME280;6861;46.170;7.222;2023-07-20T08:16:16;95852.97;;;30.98;31.71
13581;BME280;6861;46.170;7.222;2023-07-20T08:18:44;95843.28;;;31.04;31.35
13581;BME280;6861;46.170;7.222;2023-07-20T08:21:14;95840.56;;;31.04;31.33
13581;BME280;6861;46.170;7.222;2023-07-20T08:23:42;95834.41;;;31.00;31.76
13581;BME280;6861;46.170;7.222;2023-07-20T08:26:10;95833.56;;;31.10;31.82
13581;BME280;6861;46.170;7.222;2023-07-20T08:28:39;95838.53;;;31.19;31.83
13581;BME280;6861;46.170;7.222;2023-07-20T08:31:07;95833.06;;;31.22;31.67
13581;BME280;6861;46.170;7.222;2023-07-20T08:33:35;95827.38;;;31.13;31.44
13581;BME280;6861;46.170;7.222;2023-07-20T08:36:04;95835.53;;;31.06;31.56
13581;BME280;6861;46.170;7.222;2023-07-20T08:38:34;95829.38;;;31.02;32.14
13581;BME280;6861;46.170;7.222;2023-07-20T08:41:02;95825.88;;;31.05;32.12
13581;BME280;6861;46.170;7.222;2023-07-20T08:43:31;95819.28;;;31.13;32.32
13581;BME280;6861;46.170;7.222;2023-07-20T08:46:02;95811.16;;;31.13;31.57
13581;BME280;6861;46.170;7.222;2023-07-20T08:48:31;95809.25;;;31.07;32.28
13581;BME280;6861;46.170;7.222;2023-07-20T08:51:01;95805.44;;;31.04;32.23
13581;BME280;6861;46.170;7.222;2023-07-20T08:53:34;95801.63;;;30.98;32.59
13581;BME280;6861;46.170;7.222;2023-07-20T08:56:03;95790.00;;;31.01;32.28
13581;BME280;6861;46.170;7.222;2023-07-20T08:58:33;95785.47;;;30.91;32.37
13581;BME280;6861;46.170;7.222;2023-07-20T09:01:02;95785.09;;;30.89;32.25
13581;BME280;6861;46.170;7.222;2023-07-20T09:03:32;95785.03;;;30.96;32.07
13581;BME280;6861;46.170;7.222;2023-07-20T09:06:01;95781.84;;;31.08;32.78
13581;BME280;6861;46.170;7.222;2023-07-20T09:08:29;95776.38;;;31.15;32.34
13581;BME280;6861;46.170;7.222;2023-07-20T09:10:58;95773.41;;;31.37;32.35
13581;BME280;6861;46.170;7.222;2023-07-20T09:13:27;95758.47;;;31.59;31.82
13581;BME280;6861;46.170;7.222;2023-07-20T09:15:55;95764.81;;;31.79;31.98
13581;BME280;6861;46.170;7.222;2023-07-20T09:18:24;95758.38;;;31.97;30.92
13581;BME280;6861;46.170;7.222;2023-07-20T09:20:53;95754.66;;;32.10;31.19
13581;BME280;6861;46.170;7.222;2023-07-20T09:23:29;95752.91;;;32.27;30.70
13581;BME280;6861;46.170;7.222;2023-07-20T09:26:00;95752.22;;;32.46;29.91
13581;BME280;6861;46.170;7.222;2023-07-20T09:28:28;95740.44;;;32.56;29.72
13581;BME280;6861;46.170;7.222;2023-07-20T09:30:57;95735.59;;;32.68;29.65
13581;BME280;6861;46.170;7.222;2023-07-20T09:33:25;95727.72;;;32.77;29.74
13581;BME280;6861;46.170;7.222;2023-07-20T09:35:54;95721.00;;;32.85;29.30
13581;BME280;6861;46.170;7.222;2023-07-20T09:38:49;95711.03;;;32.98;29.98
13581;BME280;6861;46.170;7.222;2023-07-20T09:41:22;95715.78;;;33.14;29.43
13581;BME280;6861;46.170;7.222;2023-07-20T09:43:53;95708.59;;;33.23;29.14
13581;BME280;6861;46.170;7.222;2023-07-20T09:46:22;95702.34;;;33.27;29.07
13581;BME280;6861;46.170;7.222;2023-07-20T09:48:53;95700.34;;;33.31;29.12
13581;BME280;6861;46.170;7.222;2023-07-20T09:51:24;95698.34;;;33.35;29.23
13581;BME280;6861;46.170;7.222;2023-07-20T09:53:53;95697.50;;;33.38;29.20
13581;BME280;6861;46.170;7.222;2023-07-20T09:56:24;95691.22;;;33.41;29.43
13581;BME280;6861;46.170;7.222;2023-07-20T09:58:53;95686.16;;;33.43;29.03
13581;BME280;6861;46.170;7.222;2023-07-20T10:01:21;95689.00;;;33.36;28.66
13581;BME280;6861;46.170;7.222;2023-07-20T10:03:53;95684.53;;;33.26;28.91
13581;BME280;6861;46.170;7.222;2023-07-20T10:06:23;95676.81;;;33.24;29.00
13581;BME280;6861;46.170;7.222;2023-07-20T10:08:53;95677.53;;;33.28;28.56
13581;BME280;6861;46.170;7.222;2023-07-20T10:11:27;95670.53;;;33.31;28.71
13581;BME280;6861;46.170;7.222;2023-07-20T10:13:59;95659.78;;;33.23;29.34
13581;BME280;6861;46.170;7.222;2023-07-20T10:16:29;95669.09;;;33.22;29.00
13581;BME280;6861;46.170;7.222;2023-07-20T10:19:03;95657.09;;;33.04;29.09
13581;BME280;6861;46.170;7.222;2023-07-20T10:21:47;95655.34;;;32.94;29.23
13581;BME280;6861;46.170;7.222;2023-07-20T10:24:22;95650.16;;;32.83;29.28
13581;BME280;6861;46.170;7.222;2023-07-20T10:26:54;95651.34;;;32.82;28.73
13581;BME280;6861;46.170;7.222;2023-07-20T10:29:23;95648.28;;;32.80;28.74
13581;BME280;6861;46.170;7.222;2023-07-20T10:31:52;95648.28;;;32.80;28.69
13581;BME280;6861;46.170;7.222;2023-07-20T10:34:22;95642.88;;;32.80;28.60
13581;BME280;6861;46.170;7.222;2023-07-20T10:36:50;95641.69;;;32.81;29.02
13581;BME280;6861;46.170;7.222;2023-07-20T10:39:22;95634.75;;;32.80;29.19
13581;BME280;6861;46.170;7.222;2023-07-20T10:41:59;95631.72;;;32.74;29.42
13581;BME280;6861;46.170;7.222;2023-07-20T10:44:28;95634.50;;;32.71;29.76
13581;BME280;6861;46.170;7.222;2023-07-20T10:46:59;95629.09;;;32.71;29.27
13581;BME280;6861;46.170;7.222;2023-07-20T10:49:32;95624.50;;;32.68;29.78
13581;BME280;6861;46.170;7.222;2023-07-20T10:52:04;95617.53;;;32.67;29.66
13581;BME280;6861;46.170;7.222;2023-07-20T10:54:47;95621.56;;;32.58;29.63
13581;BME280;6861;46.170;7.222;2023-07-20T10:57:25;95608.63;;;32.46;29.64
13581;BME280;6861;46.170;7.222;2023-07-20T11:00:08;95611.13;;;32.37;29.62
13581;BME280;6861;46.170;7.222;2023-07-20T11:02:48;95603.53;;;32.29;29.68
13581;BME280;6861;46.170;7.222;2023-07-20T11:05:41;95595.91;;;32.23;30.17
13581;BME280;6861;46.170;7.222;2023-07-20T11:08:11;95591.69;;;32.19;29.89
13581;BME280;6861;46.170;7.222;2023-07-20T11:10:40;95590.56;;;32.16;29.90
13581;BME280;6861;46.170;7.222;2023-07-20T11:13:27;95580.16;;;32.15;30.00
13581;BME280;6861;46.170;7.222;2023-07-20T11:16:02;95577.09;;;32.13;30.13
13581;BME280;6861;46.170;7.222;2023-07-20T11:18:34;95572.88;;;32.12;30.25
13581;BME280;6861;46.170;7.222;2023-07-20T11:21:09;95569.81;;;32.10;30.12
13581;BME280;6861;46.170;7.222;2023-07-20T11:23:39;95569.81;;;32.10;30.16
13581;BME280;6861;46.170;7.222;2023-07-20T11:26:07;95555.66;;;32.02;29.88
13581;BME280;6861;46.170;7.222;2023-07-20T11:28:38;95556.19;;;31.93;30.61
13581;BME280;6861;46.170;7.222;2023-07-20T11:31:06;95543.13;;;31.88;30.75
13581;BME280;6861;46.170;7.222;2023-07-20T11:33:35;95548.97;;;31.87;30.38
13581;BME280;6861;46.170;7.222;2023-07-20T11:36:03;95538.19;;;31.83;30.77
13581;BME280;6861;46.170;7.222;2023-07-20T11:38:53;95537.03;;;31.84;30.20
13581;BME280;6861;46.170;7.222;2023-07-20T11:41:21;95531.66;;;31.81;30.43
13581;BME280;6861;46.170;7.222;2023-07-20T11:43:51;95525.50;;;31.80;30.73
13581;BME280;6861;46.170;7.222;2023-07-20T11:46:19;95523.19;;;31.79;30.40
13581;BME280;6861;46.170;7.222;2023-07-20T11:48:48;95511.63;;;31.78;31.21
13581;BME280;6861;46.170;7.222;2023-07-20T11:51:16;95513.16;;;31.79;30.88
13581;BME280;6861;46.170;7.222;2023-07-20T11:53:45;95502.66;;;31.81;30.50
13581;BME280;6861;46.170;7.222;2023-07-20T11:56:14;95509.19;;;31.84;30.60
13581;BME280;6861;46.170;7.222;2023-07-20T11:58:44;95492.97;;;31.84;31.09
13581;BME280;6861;46.170;7.222;2023-07-20T12:01:14;95493.38;;;31.82;30.63
13581;BME280;6861;46.170;7.222;2023-07-20T12:03:43;95495.66;;;31.84;30.53
13581;BME280;6861;46.170;7.222;2023-07-20T12:06:12;95475.97;;;31.83;31.03
13581;BME280;6861;46.170;7.222;2023-07-20T12:08:42;95475.69;;;31.78;30.66
13581;BME280;6861;46.170;7.222;2023-07-20T12:11:10;95473.31;;;31.80;30.82
13581;BME280;6861;46.170;7.222;2023-07-20T12:13:41;95468.31;;;31.78;30.67
13581;BME280;6861;46.170;7.222;2023-07-20T12:16:11;95460.63;;;31.77;30.68
13581;BME280;6861;46.170;7.222;2023-07-20T12:18:43;95463.75;;;31.75;30.31
13581;BME280;6861;46.170;7.222;2023-07-20T12:21:11;95449.84;;;31.73;30.73
13581;BME280;6861;46.170;7.222;2023-07-20T12:23:40;95453.75;;;31.72;31.02
13581;BME280;6861;46.170;7.222;2023-07-20T12:26:09;95442.16;;;31.72;30.63
13581;BME280;6861;46.170;7.222;2023-07-20T12:28:41;95444.09;;;31.71;30.77
13581;BME280;6861;46.170;7.222;2023-07-20T12:31:10;95445.97;;;31.74;30.75
13581;BME280;6861;46.170;7.222;2023-07-20T12:33:42;95434.38;;;31.74;30.73
13581;BME280;6861;46.170;7.222;2023-07-20T12:36:10;95431.28;;;31.75;30.56
13581;BME280;6861;46.170;7.222;2023-07-20T12:38:38;95424.34;;;31.74;30.73
13581;BME280;6861;46.170;7.222;2023-07-20T12:41:10;95399.22;;;31.74;30.57
13581;BME280;6861;46.170;7.222;2023-07-20T12:43:40;95408.50;;;31.73;30.49
13581;BME280;6861;46.170;7.222;2023-07-20T12:46:09;95407.41;;;31.70;30.41
13581;BME280;6861;46.170;7.222;2023-07-20T12:48:39;95407.06;;;31.68;30.25
13581;BME280;6861;46.170;7.222;2023-07-20T12:51:12;95398.56;;;31.66;30.94
13581;BME280;6861;46.170;7.222;2023-07-20T12:53:40;95401.63;;;31.68;30.83
13581;BME280;6861;46.170;7.222;2023-07-20T12:56:08;95400.47;;;31.69;30.64
13581;BME280;6861;46.170;7.222;2023-07-20T12:58:39;95393.53;;;31.68;30.88
13581;BME280;6861;46.170;7.222;2023-07-20T13:01:08;95390.75;;;31.72;30.93
13581;BME280;6861;46.170;7.222;2023-07-20T13:03:36;95380.34;;;31.70;30.58
13581;BME280;6861;46.170;7.222;2023-07-20T13:06:25;95390.00;;;31.71;30.62
13581;BME280;6861;46.170;7.222;2023-07-20T13:08:54;95381.47;;;31.73;30.37
13581;BME280;6861;46.170;7.222;2023-07-20T13:11:25;95382.72;;;31.68;30.53
13581;BME280;6861;46.170;7.222;2023-07-20T13:13:53;95370.41;;;31.63;30.35
13581;BME280;6861;46.170;7.222;2023-07-20T13:16:21;95377.06;;;31.59;30.46
13581;BME280;6861;46.170;7.222;2023-07-20T13:18:50;95372.88;;;31.54;30.58
13581;BME280;6861;46.170;7.222;2023-07-20T13:21:18;95377.59;;;31.50;30.36
13581;BME280;6861;46.170;7.222;2023-07-20T13:23:52;95376.13;;;31.46;30.48
13581;BME280;6861;46.170;7.222;2023-07-20T13:26:20;95370.03;;;31.42;30.39
13581;BME280;6861;46.170;7.222;2023-07-20T13:28:49;95358.50;;;31.38;30.34